sensor_id;sensor_type;location;lat;lon;timestamp;pressure;altitude;pressure_sealevel;temperature;humidity
37852;BME280;23691;52.486;4.650;2023-04-28T00:01:18;101456.44;;;11.67;54.17
37852;BME280;23691;52.486;4.650;2023-04-28T00:03:47;101455.28;;;11.70;54.02
37852;BME280;23691;52.486;4.650;2023-04-28T00:06:13;101457.97;;;11.70;54.21
37852;BME280;23691;52.486;4.650;2023-04-28T00:08:38;101446.56;;;11.68;53.97
37852;BME280;23691;52.486;4.650;2023-04-28T00:11:08;101452.94;;;11.67;54.16
37852;BME280;23691;52.486;4.650;2023-04-28T00:13:34;101448.41;;;11.67;53.84
37852;BME280;23691;52.486;4.650;2023-04-28T00:15:59;101441.88;;;11.70;54.06
37852;BME280;23691;52.486;4.650;2023-04-28T00:18:25;101435.97;;;11.66;54.04
37852;BME280;23691;52.486;4.650;2023-04-28T00:20:51;101433.00;;;11.69;53.98
37852;BME280;23691;52.486;4.650;2023-04-28T00:23:16;101419.91;;;11.66;53.98
37852;BME280;23691;52.486;4.650;2023-04-28T00:25:42;101416.38;;;11.66;54.10
37852;BME280;23691;52.486;4.650;2023-04-28T00:28:07;101418.38;;;11.64;54.19
37852;BME280;23691;52.486;4.650;2023-04-28T00:30:32;101410.50;;;11.62;54.32
37852;BME280;23691;52.486;4.650;2023-04-28T00:32:58;101415.50;;;11.57;54.37
37852;BME280;23691;52.486;4.650;2023-04-28T00:35:23;101417.66;;;11.53;54.26
37852;BME280;23691;52.486;4.650;2023-04-28T00:37:48;101416.47;;;11.56;54.37
37852;BME280;23691;52.486;4.650;2023-04-28T00:40:14;101418.69;;;11.60;54.11
37852;BME280;23691;52.486;4.650;2023-04-28T00:42:39;101411.66;;;11.59;54.12
37852;BME280;23691;52.486;4.650;2023-04-28T00:45:05;101405.75;;;11.56;54.13
37852;BME280;23691;52.486;4.650;2023-04-28T00:47:35;101404.41;;;11.52;54.30
37852;BME280;23691;52.486;4.650;2023-04-28T00:50:02;101411.53;;;11.43;54.61
37852;BME280;23691;52.486;4.650;2023-04-28T00:52:30;101398.84;;;11.45;54.63
37852;BME280;23691;52.486;4.650;2023-04-28T00:54:56;101393.31;;;11.47;54.60
37852;BME280;23691;52.486;4.650;2023-04-28T00:57:22;101395.16;;;11.46;54.74
37852;BME280;23691;52.486;4.650;2023-04-28T00:59:47;101386.41;;;11.44;54.94
37852;BME280;23691;52.486;4.650;2023-04-28T01:02:13;101385.59;;;11.44;54.77
37852;BME280;23691;52.486;4.650;2023-04-28T01:04:43;101386.91;;;11.39;54.87
37852;BME280;23691;52.486;4.650;2023-04-28T01:07:08;101389.19;;;11.34;54.96
37852;BME280;23691;52.486;4.650;2023-04-28T01:09:34;101386.50;;;11.34;54.88
37852;BME280;23691;52.486;4.650;2023-04-28T01:11:59;101376.44;;;11.28;55.07
37852;BME280;23691;52.486;4.650;2023-04-28T01:14:25;101375.59;;;11.28;54.95
37852;BME280;23691;52.486;4.650;2023-04-28T01:16:50;101372.94;;;11.28;54.75
37852;BME280;23691;52.486;4.650;2023-04-28T01:19:22;101365.19;;;11.25;54.89
37852;BME280;23691;52.486;4.650;2023-04-28T01:21:50;101363.50;;;11.24;55.03
37852;BME280;23691;52.486;4.650;2023-04-28T01:24:16;101368.88;;;11.24;55.25
37852;BME280;23691;52.486;4.650;2023-04-28T01:26:41;101371.69;;;11.22;55.23
37852;BME280;23691;52.486;4.650;2023-04-28T01:29:07;101366.97;;;11.16;55.73
37852;BME280;23691;52.486;4.650;2023-04-28T01:31:32;101360.94;;;11.14;56.19
37852;BME280;23691;52.486;4.650;2023-04-28T01:33:58;101367.28;;;11.13;56.34
37852;BME280;23691;52.486;4.650;2023-04-28T01:36:24;101371.25;;;11.09;56.74
37852;BME280;23691;52.486;4.650;2023-04-28T01:38:52;101361.38;;;11.09;56.84
37852;BME280;23691;52.486;4.650;2023-04-28T01:41:21;101349.63;;;11.02;57.41
37852;BME280;23691;52.486;4.650;2023-04-28T01:43:46;101351.63;;;11.00;57.58
37852;BME280;23691;52.486;4.650;2023-04-28T01:46:12;101345.59;;;10.98;57.46
37852;BME280;23691;52.486;4.650;2023-04-28T01:48:37;101339.53;;;10.96;57.90
37852;BME280;23691;52.486;4.650;2023-04-28T01:51:03;101342.03;;;10.98;57.86
37852;BME280;23691;52.486;4.650;2023-04-28T01:53:29;101342.91;;;10.98;57.87
37852;BME280;23691;52.486;4.650;2023-04-28T01:55:54;101343.75;;;10.99;58.07
37852;BME280;23691;52.486;4.650;2023-04-28T01:58:20;101341.22;;;10.97;57.94
37852;BME280;23691;52.486;4.650;2023-04-28T02:00:46;101332.66;;;10.93;57.93
37852;BME280;23691;52.486;4.650;2023-04-28T02:03:11;101338.72;;;10.95;58.17
37852;BME280;23691;52.486;4.650;2023-04-28T02:05:37;101323.25;;;10.89;58.56
37852;BME280;23691;52.486;4.650;2023-04-28T02:08:02;101330.44;;;10.89;58.34
37852;BME280;23691;52.486;4.650;2023-04-28T02:10:28;101323.00;;;10.83;58.54
37852;BME280;23691;52.486;4.650;2023-04-28T02:12:53;101317.00;;;10.81;58.61
37852;BME280;23691;52.486;4.650;2023-04-28T02:15:19;101320.28;;;10.74;58.61
37852;BME280;23691;52.486;4.650;2023-04-28T02:17:44;101318.06;;;10.70;59.01
37852;BME280;23691;52.486;4.650;2023-04-28T02:20:10;101304.53;;;10.71;58.80
37852;BME280;23691;52.486;4.650;2023-04-28T02:22:36;101299.19;;;10.71;58.97
37852;BME280;23691;52.486;4.650;2023-04-28T02:25:01;101297.19;;;10.73;58.85
37852;BME280;23691;52.486;4.650;2023-04-28T02:27:26;101293.84;;;10.71;58.83
37852;BME280;23691;52.486;4.650;2023-04-28T02:29:52;101282.44;;;10.69;58.80
37852;BME280;23691;52.486;4.650;2023-04-28T02:32:17;101281.75;;;10.67;58.92
37852;BME280;23691;52.486;4.650;2023-04-28T02:34:42;101277.53;;;10.65;58.67
37852;BME280;23691;52.486;4.650;2023-04-28T02:37:08;101269.97;;;10.60;59.27
37852;BME280;23691;52.486;4.650;2023-04-28T02:39:33;101269.69;;;10.63;58.95
37852;BME280;23691;52.486;4.650;2023-04-28T02:42:01;101272.38;;;10.63;58.91
37852;BME280;23691;52.486;4.650;2023-04-28T02:44:29;101264.03;;;10.66;59.11
37852;BME280;23691;52.486;4.650;2023-04-28T02:46:54;101257.50;;;10.69;58.98
37852;BME280;23691;52.486;4.650;2023-04-28T02:49:20;101255.66;;;10.69;59.09
37852;BME280;23691;52.486;4.650;2023-04-28T02:51:45;101251.84;;;10.72;58.96
37852;BME280;23691;52.486;4.650;2023-04-28T02:54:14;101242.44;;;10.68;58.96
37852;BME280;23691;52.486;4.650;2023-04-28T02:56:39;101243.97;;;10.70;58.96
37852;BME280;23691;52.486;4.650;2023-04-28T02:59:05;101238.59;;;10.70;59.02
37852;BME280;23691;52.486;4.650;2023-04-28T03:01:31;101238.47;;;10.72;59.06
37852;BME280;23691;52.486;4.650;2023-04-28T03:03:57;101236.09;;;10.69;58.81
37852;BME280;23691;52.486;4.650;2023-04-28T03:06:24;101217.38;;;10.69;58.85
37852;BME280;23691;52.486;4.650;2023-04-28T03:08:50;101205.28;;;10.65;59.04
37852;BME280;23691;52.486;4.650;2023-04-28T03:11:16;101199.25;;;10.63;58.92
37852;BME280;23691;52.486;4.650;2023-04-28T03:13:41;101202.63;;;10.65;58.86
37852;BME280;23691;52.486;4.650;2023-04-28T03:16:06;101198.41;;;10.62;59.00
37852;BME280;23691;52.486;4.650;2023-04-28T03:18:32;101205.94;;;10.59;59.01
37852;BME280;23691;52.486;4.650;2023-04-28T03:20:57;101213.41;;;10.55;59.15
37852;BME280;23691;52.486;4.650;2023-04-28T03:23:23;101210.91;;;10.53;59.30
37852;BME280;23691;52.486;4.650;2023-04-28T03:25:48;101207.53;;;10.51;59.03
37852;BME280;23691;52.486;4.650;2023-04-28T03:28:13;101210.81;;;10.45;59.48
37852;BME280;23691;52.486;4.650;2023-04-28T03:30:40;101195.47;;;10.47;59.36
37852;BME280;23691;52.486;4.650;2023-04-28T03:33:05;101198.59;;;10.43;59.51
37852;BME280;23691;52.486;4.650;2023-04-28T03:35:31;101185.78;;;10.46;59.75
37852;BME280;23691;52.486;4.650;2023-04-28T03:37:56;101173.56;;;10.44;59.66
37852;BME280;23691;52.486;4.650;2023-04-28T03:40:22;101164.84;;;10.42;59.66
37852;BME280;23691;52.486;4.650;2023-04-28T03:42:47;101154.97;;;10.42;59.79
37852;BME280;23691;52.486;4.650;2023-04-28T03:45:13;101161.16;;;10.43;59.77
37852;BME280;23691;52.486;4.650;2023-04-28T03:47:38;101151.13;;;10.45;59.87
37852;BME280;23691;52.486;4.650;2023-04-28T03:50:03;101157.50;;;10.44;59.85
37852;BME280;23691;52.486;4.650;2023-04-28T03:52:29;101157.50;;;10.44;59.91
37852;BME280;23691;52.486;4.650;2023-04-28T03:54:55;101150.13;;;10.46;59.65
37852;BME280;23691;52.486;4.650;2023-04-28T03:57:20;101137.91;;;10.43;59.81
37852;BME280;23691;52.486;4.650;2023-04-28T03:59:46;101136.25;;;10.42;59.94
37852;BME280;23691;52.486;4.650;2023-04-28T04:02:11;101139.75;;;10.43;59.88
37852;BME280;23691;52.486;4.650;2023-04-28T04:04:36;101138.59;;;10.45;59.69
37852;BME280;23691;52.486;4.650;2023-04-28T04:07:02;101142.28;;;10.44;59.62
37852;BME280;23691;52.486;4.650;2023-04-28T04:09:28;101135.41;;;10.42;59.80
37852;BME280;23691;52.486;4.650;2023-04-28T04:11:54;101128.38;;;10.41;59.93
37852;BME280;23691;52.486;4.650;2023-04-28T04:14:19;101126.56;;;10.41;60.08
37852;BME280;23691;52.486;4.650;2023-04-28T04:16:45;101129.59;;;10.46;60.07
37852;BME280;23691;52.486;4.650;2023-04-28T04:19:11;101132.63;;;10.51;59.88
37852;BME280;23691;52.486;4.650;2023-04-28T04:21:37;101128.94;;;10.52;59.72
37852;BME280;23691;52.486;4.650;2023-04-28T04:24:02;101131.94;;;10.49;59.96
37852;BME280;23691;52.486;4.650;2023-04-28T04:26:27;101133.63;;;10.50;60.00
37852;BME280;23691;52.486;4.650;2023-04-28T04:28:53;101133.63;;;10.50;60.17
37852;BME280;23691;52.486;4.650;2023-04-28T04:31:18;101138.00;;;10.51;60.09
37852;BME280;23691;52.486;4.650;2023-04-28T04:33:44;101142.88;;;10.56;60.34
37852;BME280;23691;52.486;4.650;2023-04-28T04:36:09;101138.69;;;10.53;60.25
37852;BME280;23691;52.486;4.650;2023-04-28T04:38:35;101133.97;;;10.56;60.42
37852;BME280;23691;52.486;4.650;2023-04-28T04:41:00;101133.16;;;10.55;60.44
37852;BME280;23691;52.486;4.650;2023-04-28T04:43:25;101129.31;;;10.58;60.31
37852;BME280;23691;52.486;4.650;2023-04-28T04:45:51;101125.66;;;10.59;60.54
37852;BME280;23691;52.486;4.650;2023-04-28T04:48:16;101129.16;;;10.59;60.58
37852;BME280;23691;52.486;4.650;2023-04-28T04:50:42;101122.81;;;10.60;60.83
37852;BME280;23691;52.486;4.650;2023-04-28T04:53:08;101113.81;;;10.61;60.68
37852;BME280;23691;52.486;4.650;2023-04-28T04:55:33;101092.41;;;10.61;60.95
37852;BME280;23691;52.486;4.650;2023-04-28T04:57:59;101069.84;;;10.64;61.13
37852;BME280;23691;52.486;4.650;2023-04-28T05:00:25;101063.47;;;10.65;61.04
37852;BME280;23691;52.486;4.650;2023-04-28T05:02:51;101050.44;;;10.62;61.27
37852;BME280;23691;52.486;4.650;2023-04-28T05:05:16;101049.88;;;10.58;61.52
37852;BME280;23691;52.486;4.650;2023-04-28T05:07:42;101042.88;;;10.57;61.64
37852;BME280;23691;52.486;4.650;2023-04-28T05:10:08;101033.34;;;10.55;61.93
37852;BME280;23691;52.486;4.650;2023-04-28T05:12:35;101022.13;;;10.51;62.16
37852;BME280;23691;52.486;4.650;2023-04-28T05:15:01;101021.78;;;10.54;62.03
37852;BME280;23691;52.486;4.650;2023-04-28T05:17:26;101032.13;;;10.49;62.50
37852;BME280;23691;52.486;4.650;2023-04-28T05:19:52;101053.69;;;10.47;62.66
37852;BME280;23691;52.486;4.650;2023-04-28T05:22:17;101064.25;;;10.49;62.59
37852;BME280;23691;52.486;4.650;2023-04-28T05:24:42;101100.06;;;10.56;62.20
37852;BME280;23691;52.486;4.650;2023-04-28T05:27:08;101103.09;;;10.61;62.90
37852;BME280;23691;52.486;4.650;2023-04-28T05:29:34;101116.66;;;10.68;62.73
37852;BME280;23691;52.486;4.650;2023-04-28T05:31:59;101125.44;;;10.78;62.48
37852;BME280;23691;52.486;4.650;2023-04-28T05:34:25;101125.81;;;10.83;62.41
37852;BME280;23691;52.486;4.650;2023-04-28T05:36:50;101123.31;;;10.90;62.40
37852;BME280;23691;52.486;4.650;2023-04-28T05:39:16;101123.53;;;10.96;62.41
37852;BME280;23691;52.486;4.650;2023-04-28T05:41:41;101120.47;;;10.91;62.54
37852;BME280;23691;52.486;4.650;2023-04-28T05:44:07;101129.19;;;10.93;62.60
37852;BME280;23691;52.486;4.650;2023-04-28T05:46:32;101116.50;;;10.95;62.70
37852;BME280;23691;52.486;4.650;2023-04-28T05:48:57;101111.66;;;10.99;62.72
37852;BME280;23691;52.486;4.650;2023-04-28T05:51:23;101113.34;;;11.00;62.66
37852;BME280;23691;52.486;4.650;2023-04-28T05:53:48;101114.19;;;11.01;62.92
37852;BME280;23691;52.486;4.650;2023-04-28T05:56:14;101102.94;;;10.97;63.10
37852;BME280;23691;52.486;4.650;2023-04-28T05:58:40;101107.44;;;10.96;62.96
37852;BME280;23691;52.486;4.650;2023-04-28T06:01:05;101100.94;;;10.99;62.94
37852;BME280;23691;52.486;4.650;2023-04-28T06:03:31;101105.13;;;11.02;63.14
37852;BME280;23691;52.486;4.650;2023-04-28T06:05:56;101107.19;;;11.08;62.91
37852;BME280;23691;52.486;4.650;2023-04-28T06:08:22;101107.53;;;11.13;63.03
37852;BME280;23691;52.486;4.650;2023-04-28T06:10:47;101105.34;;;11.16;62.95
37852;BME280;23691;52.486;4.650;2023-04-28T06:13:12;101099.31;;;11.14;63.09
37852;BME280;23691;52.486;4.650;2023-04-28T06:15:38;101094.81;;;11.15;62.98
37852;BME280;23691;52.486;4.650;2023-04-28T06:18:03;101093.63;;;11.09;63.07
37852;BME280;23691;52.486;4.650;2023-04-28T06:20:31;101101.66;;;11.09;63.00
37852;BME280;23691;52.486;4.650;2023-04-28T06:22:56;101085.75;;;11.08;63.27
37852;BME280;23691;52.486;4.650;2023-04-28T06:25:21;101095.31;;;11.10;63.23
37852;BME280;23691;52.486;4.650;2023-04-28T06:27:47;101090.13;;;11.17;62.88
37852;BME280;23691;52.486;4.650;2023-04-28T06:30:20;101086.63;;;11.25;62.84
37852;BME280;23691;52.486;4.650;2023-04-28T06:32:46;101090.50;;;11.30;63.03
37852;BME280;23691;52.486;4.650;2023-04-28T06:35:11;101087.66;;;11.32;62.97
37852;BME280;23691;52.486;4.650;2023-04-28T06:37:37;101089.34;;;11.33;62.86
37852;BME280;23691;52.486;4.650;2023-04-28T06:40:02;101081.13;;;11.34;62.98
37852;BME280;23691;52.486;4.650;2023-04-28T06:42:28;101074.97;;;11.50;62.72
37852;BME280;23691;52.486;4.650;2023-04-28T06:44:53;101075.50;;;11.62;62.73
37852;BME280;23691;52.486;4.650;2023-04-28T06:47:18;101069.81;;;11.65;62.55
37852;BME280;23691;52.486;4.650;2023-04-28T06:49:44;101068.66;;;11.59;62.81
37852;BME280;23691;52.486;4.650;2023-04-28T06:52:11;101062.59;;;11.57;63.10
37852;BME280;23691;52.486;4.650;2023-04-28T06:54:38;101060.75;;;11.50;63.05
37852;BME280;23691;52.486;4.650;2023-04-28T06:57:03;101061.75;;;11.49;63.01
37852;BME280;23691;52.486;4.650;2023-04-28T06:59:29;101050.03;;;11.50;63.20
37852;BME280;23691;52.486;4.650;2023-04-28T07:01:55;101047.50;;;11.56;63.07
37852;BME280;23691;52.486;4.650;2023-04-28T07:04:21;101047.34;;;11.66;62.82
37852;BME280;23691;52.486;4.650;2023-04-28T07:06:46;101051.88;;;11.74;62.85
37852;BME280;23691;52.486;4.650;2023-04-28T07:09:12;101055.09;;;11.77;63.09
37852;BME280;23691;52.486;4.650;2023-04-28T07:11:37;101051.22;;;11.80;62.81
37852;BME280;23691;52.486;4.650;2023-04-28T07:14:02;101057.06;;;11.83;62.76
37852;BME280;23691;52.486;4.650;2023-04-28T07:16:27;101058.59;;;11.86;62.71
37852;BME280;23691;52.486;4.650;2023-04-28T07:18:53;101048.56;;;11.88;62.84
37852;BME280;23691;52.486;4.650;2023-04-28T07:21:18;101052.06;;;11.89;62.67
37852;BME280;23691;52.486;4.650;2023-04-28T07:23:45;101040.84;;;11.85;63.05
37852;BME280;23691;52.486;4.650;2023-04-28T07:26:11;101032.78;;;11.85;63.12
37852;BME280;23691;52.486;4.650;2023-04-28T07:28:40;101039.34;;;11.91;62.94
37852;BME280;23691;52.486;4.650;2023-04-28T07:31:06;101033.47;;;11.95;62.79
37852;BME280;23691;52.486;4.650;2023-04-28T07:33:31;101046.88;;;11.95;62.76
37852;BME280;23691;52.486;4.650;2023-04-28T07:35:56;101047.91;;;11.94;62.89
37852;BME280;23691;52.486;4.650;2023-04-28T07:38:22;101045.56;;;11.91;63.06
37852;BME280;23691;52.486;4.650;2023-04-28T07:40:47;101046.88;;;11.95;63.04
37852;BME280;23691;52.486;4.650;2023-04-28T07:43:13;101042.53;;;11.94;63.06
37852;BME280;23691;52.486;4.650;2023-04-28T07:45:39;101047.06;;;12.02;62.98
37852;BME280;23691;52.486;4.650;2023-04-28T07:48:05;101040.19;;;12.08;63.02
37852;BME280;23691;52.486;4.650;2023-04-28T07:50:30;101048.91;;;12.10;63.09
37852;BME280;23691;52.486;4.650;2023-04-28T07:52:57;101049.41;;;12.05;63.28
37852;BME280;23691;52.486;4.650;2023-04-28T07:55:22;101046.03;;;12.03;63.33
37852;BME280;23691;52.486;4.650;2023-04-28T07:57:48;101036.81;;;12.14;63.04
37852;BME280;23691;52.486;4.650;2023-04-28T08:00:14;101026.91;;;12.31;62.87
37852;BME280;23691;52.486;4.650;2023-04-28T08:02:39;101019.81;;;12.46;62.86
37852;BME280;23691;52.486;4.650;2023-04-28T08:05:05;101027.00;;;12.54;62.94
37852;BME280;23691;52.486;4.650;2023-04-28T08:07:33;101026.66;;;12.57;63.43
37852;BME280;23691;52.486;4.650;2023-04-28T08:09:58;101027.47;;;12.57;63.55
37852;BME280;23691;52.486;4.650;2023-04-28T08:12:25;101023.59;;;12.60;64.13
37852;BME280;23691;52.486;4.650;2023-04-28T08:14:50;101024.78;;;12.65;64.54
37852;BME280;23691;52.486;4.650;2023-04-28T08:17:16;101020.41;;;12.73;64.57
37852;BME280;23691;52.486;4.650;2023-04-28T08:19:42;101020.88;;;12.76;64.99
37852;BME280;23691;52.486;4.650;2023-04-28T08:22:10;101025.22;;;12.77;65.26
37852;BME280;23691;52.486;4.650;2023-04-28T08:24:39;101020.81;;;12.84;65.49
37852;BME280;23691;52.486;4.650;2023-04-28T08:27:06;101009.75;;;12.87;65.71
37852;BME280;23691;52.486;4.650;2023-04-28T08:29:32;101007.91;;;12.88;65.87
37852;BME280;23691;52.486;4.650;2023-04-28T08:31:58;101004.72;;;12.84;66.14
37852;BME280;23691;52.486;4.650;2023-04-28T08:34:25;101012.13;;;12.82;66.39
37852;BME280;23691;52.486;4.650;2023-04-28T08:36:51;101014.31;;;12.79;66.63
37852;BME280;23691;52.486;4.650;2023-04-28T08:39:16;101014.47;;;12.77;67.04
37852;BME280;23691;52.486;4.650;2023-04-28T08:41:42;101011.59;;;12.87;67.19
37852;BME280;23691;52.486;4.650;2023-04-28T08:44:08;101013.09;;;12.89;67.33
37852;BME280;23691;52.486;4.650;2023-04-28T08:46:34;101010.59;;;12.88;67.54
37852;BME280;23691;52.486;4.650;2023-04-28T08:49:00;101012.25;;;12.89;67.58
37852;BME280;23691;52.486;4.650;2023-04-28T08:51:37;101004.84;;;12.91;67.98
37852;BME280;23691;52.486;4.650;2023-04-28T08:54:08;101005.34;;;12.95;68.04
37852;BME280;23691;52.486;4.650;2023-04-28T08:56:35;101010.19;;;12.99;68.08
37852;BME280;23691;52.486;4.650;2023-04-28T08:59:02;101004.81;;;12.99;68.06
37852;BME280;23691;52.486;4.650;2023-04-28T09:01:31;101005.66;;;13.00;68.38
37852;BME280;23691;52.486;4.650;2023-04-28T09:03:56;101004.13;;;13.05;68.25
37852;BME280;23691;52.486;4.650;2023-04-28T09:06:24;101000.28;;;13.00;68.35
37852;BME280;23691;52.486;4.650;2023-04-28T09:08:50;101002.97;;;13.00;68.16
37852;BME280;23691;52.486;4.650;2023-04-28T09:11:16;100990.69;;;13.05;68.49
37852;BME280;23691;52.486;4.650;2023-04-28T09:13:41;100989.63;;;13.15;68.53
37852;BME280;23691;52.486;4.650;2023-04-28T09:16:06;100994.56;;;13.26;68.64
37852;BME280;23691;52.486;4.650;2023-04-28T09:18:32;101002.06;;;13.39;68.70
37852;BME280;23691;52.486;4.650;2023-04-28T09:21:08;100997.81;;;13.67;68.29
37852;BME280;23691;52.486;4.650;2023-04-28T09:23:45;100996.28;;;13.88;68.24
37852;BME280;23691;52.486;4.650;2023-04-28T09:26:11;100989.94;;;14.04;68.01
37852;BME280;23691;52.486;4.650;2023-04-28T09:28:37;100989.47;;;14.15;68.11
37852;BME280;23691;52.486;4.650;2023-04-28T09:31:02;100979.84;;;14.21;68.33
37852;BME280;23691;52.486;4.650;2023-04-28T09:33:28;100983.34;;;14.36;67.93
37852;BME280;23691;52.486;4.650;2023-04-28T09:35:53;100981.88;;;14.48;68.17
37852;BME280;23691;52.486;4.650;2023-04-28T09:38:20;100981.50;;;14.66;68.11
37852;BME280;23691;52.486;4.650;2023-04-28T09:41:00;100984.56;;;14.78;68.05
37852;BME280;23691;52.486;4.650;2023-04-28T09:43:26;100984.00;;;14.82;67.91
37852;BME280;23691;52.486;4.650;2023-04-28T09:45:52;100982.97;;;14.84;67.97
37852;BME280;23691;52.486;4.650;2023-04-28T09:48:26;100976.63;;;14.91;67.80
37852;BME280;23691;52.486;4.650;2023-04-28T09:50:53;100976.06;;;14.96;68.05
37852;BME280;23691;52.486;4.650;2023-04-28T09:53:24;100975.56;;;15.07;67.90
37852;BME280;23691;52.486;4.650;2023-04-28T09:55:55;100969.88;;;15.17;67.95
37852;BME280;23691;52.486;4.650;2023-04-28T09:58:22;100971.41;;;15.26;67.61
37852;BME280;23691;52.486;4.650;2023-04-28T10:00:58;100970.88;;;15.37;67.93
37852;BME280;23691;52.486;4.650;2023-04-28T10:03:28;100964.75;;;15.43;67.78
37852;BME280;23691;52.486;4.650;2023-04-28T10:05:55;100972.38;;;15.40;67.87
37852;BME280;23691;52.486;4.650;2023-04-28T10:08:23;100970.00;;;15.30;68.15
37852;BME280;23691;52.486;4.650;2023-04-28T10:10:49;100961.13;;;15.15;68.45
37852;BME280;23691;52.486;4.650;2023-04-28T10:13:17;100966.84;;;15.05;68.56
37852;BME280;23691;52.486;4.650;2023-04-28T10:15:43;100974.53;;;14.87;68.74
37852;BME280;23691;52.486;4.650;2023-04-28T10:18:10;100967.34;;;14.79;69.02
37852;BME280;23691;52.486;4.650;2023-04-28T10:20:36;100975.63;;;14.92;68.94
37852;BME280;23691;52.486;4.650;2023-04-28T10:23:42;100975.63;;;14.92;69.16
37852;BME280;23691;52.486;4.650;2023-04-28T10:26:13;100969.75;;;14.89;69.48
37852;BME280;23691;52.486;4.650;2023-04-28T10:28:46;100964.13;;;15.05;69.18
37852;BME280;23691;52.486;4.650;2023-04-28T10:31:14;100973.97;;;15.13;69.50
37852;BME280;23691;52.486;4.650;2023-04-28T10:33:41;100975.66;;;15.14;69.67
37852;BME280;23691;52.486;4.650;2023-04-28T10:36:07;100966.13;;;15.18;69.86
37852;BME280;23691;52.486;4.650;2023-04-28T10:38:33;100969.03;;;15.16;70.31
37852;BME280;23691;52.486;4.650;2023-04-28T10:40:59;100968.78;;;15.11;70.56
37852;BME280;23691;52.486;4.650;2023-04-28T10:48:19;100964.34;;;15.25;70.78
37852;BME280;23691;52.486;4.650;2023-04-28T10:58:36;100963.88;;;15.43;71.23
37852;BME280;23691;52.486;4.650;2023-04-28T11:06:24;100958.19;;;15.31;72.41
37852;BME280;23691;52.486;4.650;2023-04-28T11:09:02;100963.38;;;15.33;72.12
37852;BME280;23691;52.486;4.650;2023-04-28T11:11:31;100964.03;;;15.35;72.29
37852;BME280;23691;52.486;4.650;2023-04-28T11:16:52;100962.13;;;15.29;72.96
37852;BME280;23691;52.486;4.650;2023-04-28T11:19:19;100965.75;;;15.21;73.39
37852;BME280;23691;52.486;4.650;2023-04-28T11:21:46;100960.50;;;15.13;73.83
37852;BME280;23691;52.486;4.650;2023-04-28T11:24:12;100956.63;;;15.00;74.32
37852;BME280;23691;52.486;4.650;2023-04-28T11:26:38;100959.63;;;14.91;74.70
37852;BME280;23691;52.486;4.650;2023-04-28T11:29:04;100965.84;;;14.91;74.79
37852;BME280;23691;52.486;4.650;2023-04-28T11:31:30;100973.31;;;14.89;75.14
37852;BME280;23691;52.486;4.650;2023-04-28T11:33:57;100964.75;;;14.86;75.52
37852;BME280;23691;52.486;4.650;2023-04-28T11:36:34;100965.78;;;14.85;75.29
37852;BME280;23691;52.486;4.650;2023-04-28T11:39:04;100962.06;;;14.86;75.73
37852;BME280;23691;52.486;4.650;2023-04-28T11:41:32;100968.47;;;14.85;75.97
37852;BME280;23691;52.486;4.650;2023-04-28T11:43:59;100973.22;;;14.82;76.13
37852;BME280;23691;52.486;4.650;2023-04-28T11:46:25;100971.09;;;14.78;76.62
37852;BME280;23691;52.486;4.650;2023-04-28T11:48:59;100965.88;;;14.76;76.73
37852;BME280;23691;52.486;4.650;2023-04-28T11:51:30;100963.00;;;14.78;76.80
37852;BME280;23691;52.486;4.650;2023-04-28T11:53:56;100962.63;;;14.81;76.89
37852;BME280;23691;52.486;4.650;2023-04-28T11:56:22;100968.66;;;14.83;77.18
37852;BME280;23691;52.486;4.650;2023-04-28T11:59:02;100965.59;;;14.86;77.22
37852;BME280;23691;52.486;4.650;2023-04-28T12:01:30;100958.22;;;14.95;77.17
37852;BME280;23691;52.486;4.650;2023-04-28T12:03:55;100965.53;;;15.01;77.20
37852;BME280;23691;52.486;4.650;2023-04-28T12:06:21;100963.38;;;15.11;76.92
37852;BME280;23691;52.486;4.650;2023-04-28T12:08:47;100957.94;;;15.26;76.55
37852;BME280;23691;52.486;4.650;2023-04-28T12:11:13;100968.41;;;15.36;76.69
37852;BME280;23691;52.486;4.650;2023-04-28T12:13:39;100970.50;;;15.40;76.73
37852;BME280;23691;52.486;4.650;2023-04-28T12:16:06;100975.19;;;15.32;76.97
37852;BME280;23691;52.486;4.650;2023-04-28T12:18:35;100974.56;;;15.30;76.89
37852;BME280;23691;52.486;4.650;2023-04-28T12:21:01;100975.69;;;15.20;77.25
37852;BME280;23691;52.486;4.650;2023-04-28T12:23:34;100982.63;;;15.08;77.15
37852;BME280;23691;52.486;4.650;2023-04-28T12:26:01;100973.69;;;15.08;77.21
37852;BME280;23691;52.486;4.650;2023-04-28T12:28:39;100981.22;;;15.12;77.33
37852;BME280;23691;52.486;4.650;2023-04-28T12:31:06;100986.13;;;15.09;77.08
37852;BME280;23691;52.486;4.650;2023-04-28T12:33:33;100993.34;;;15.01;77.36
37852;BME280;23691;52.486;4.650;2023-04-28T12:36:02;100984.41;;;15.01;77.46
37852;BME280;23691;52.486;4.650;2023-04-28T12:38:28;100982.09;;;14.98;77.60
37852;BME280;23691;52.486;4.650;2023-04-28T12:40:53;100991.66;;;15.00;77.51
37852;BME280;23691;52.486;4.650;2023-04-28T12:43:19;100986.81;;;14.96;77.49
37852;BME280;23691;52.486;4.650;2023-04-28T12:45:47;100990.94;;;14.92;77.82
37852;BME280;23691;52.486;4.650;2023-04-28T12:48:13;100993.06;;;14.96;77.57
37852;BME280;23691;52.486;4.650;2023-04-28T12:50:38;100993.53;;;15.00;77.70
37852;BME280;23691;52.486;4.650;2023-04-28T12:53:03;100999.22;;;14.90;78.15
37852;BME280;23691;52.486;4.650;2023-04-28T12:55:29;100997.00;;;14.79;78.34
37852;BME280;23691;52.486;4.650;2023-04-28T12:57:54;101004.63;;;14.75;78.60
37852;BME280;23691;52.486;4.650;2023-04-28T13:00:20;100998.94;;;14.85;78.66
37852;BME280;23691;52.486;4.650;2023-04-28T13:02:48;101007.16;;;14.98;77.94
37852;BME280;23691;52.486;4.650;2023-04-28T13:05:16;101006.72;;;14.95;77.93
37852;BME280;23691;52.486;4.650;2023-04-28T13:07:41;101002.94;;;14.89;78.06